This is the latest recevied weather packets stored in our database for station/object KC8JWT. If no packets are shown the sender has not sent any weather packets the latest 10 day(s).
| Time | Temp. | Humidity | Pressure | Rain* | Wind** | Luminosity | Snow |
|---|---|---|---|---|---|---|---|
| 1778152710 | 8.33° C | 79% | 1014.3 hPa | 0 mm | - | 45 W/m² | - |
| 1778152406 | 7.78° C | 80% | 1014.4 hPa | 0 mm | - | 41 W/m² | - |
| 1778152102 | 7.22° C | 82% | 1014.4 hPa | 0 mm | - | 37 W/m² | - |
| 1778151799 | 6.67° C | 85% | 1014.3 hPa | 0 mm | - | 32 W/m² | - |
| 1778151496 | 5.56° C | 89% | 1014.2 hPa | 0 mm | - | 24 W/m² | - |
| 1778151192 | 5.56° C | 90% | 1014.1 hPa | 0 mm | - | 22 W/m² | - |
| 1778150889 | 5° C | 91% | 1014.3 hPa | 0 mm | - | 16 W/m² | - |
| 1778150586 | 5° C | 92% | 1014.3 hPa | 0 mm | - | 14 W/m² | - |
| 1778150282 | 5° C | 92% | 1013.9 hPa | 0 mm | - | 11 W/m² | - |
| 1778149978 | 5° C | 91% | 1013.8 hPa | 0 mm | - | 8 W/m² | - |
| 1778149675 | 5° C | 91% | 1013.9 hPa | 0 mm | - | 3 W/m² | - |
| 1778149372 | 5° C | 91% | 1013.9 hPa | 0 mm | - | 3 W/m² | - |
| 1778149068 | 5° C | 91% | 1013.9 hPa | 0 mm | - | 2 W/m² | - |
| 1778148763 | 5° C | 91% | 1013.9 hPa | 0 mm | - | 1 W/m² | - |
| 1778148460 | 5° C | 91% | 1013.9 hPa | 0 mm | - | 0 W/m² | - |
| 1778148159 | 5° C | 90% | 1013.8 hPa | 0 mm | - | 0 W/m² | - |
| 1778147856 | 5.56° C | 90% | 1013.7 hPa | 0 mm | - | 0 W/m² | - |
| 1778147552 | 5.56° C | 91% | 1013.5 hPa | 0 mm | - | 0 W/m² | - |
| 1778147249 | 5.56° C | 91% | 1013.8 hPa | 0 mm | - | 0 W/m² | - |
| 1778146946 | 5.56° C | 90% | 1013.6 hPa | 0 mm | - | 0 W/m² | - |
| 1778146643 | 5.56° C | 89% | 1013.8 hPa | 0 mm | - | 0 W/m² | - |
| 1778146341 | 5.56° C | 89% | 1013.8 hPa | 0 mm | - | 0 W/m² | - |
| 1778146039 | 5.56° C | 89% | 1013.8 hPa | 0 mm | - | 0 W/m² | - |
| 1778145735 | 5.56° C | 89% | 1013.7 hPa | 0 mm | - | 0 W/m² | - |
| 1778145431 | 5.56° C | 89% | 1013.9 hPa | 0 mm | - | 0 W/m² | - |
* Rain latest hour (hover to see other rain measurements)
** Current wind speed in m/s (hover to see current wind gust speed)